Nou Barris, Spain
Current Conditions -  °F | °C
As of 8:00 AM on Friday 31 Oct 2014 (Local Time) from LELL Reporting Station
Haze Haze  
Wind Chill: 57°   Ceiling: 1200
Heat Index: 57°   Visibility: 2.5mi
Dew Point: 57°   Wind: 0mph
Humidity: 100%   Direction: NA
Pressure: 30.27"   Gusts: NA
Location:  41.44°N, 2.18°E
Report Text: LELL 310700Z 00000KT 4000 BR BKN012 14/14 Q1025
Loading
Personal Weather Stations






























Interactive Weather Map
Tropical Storm Tracking
New forecast layout! Learn more

10-Day Weather Forecast

Advertisements
Track Severe Weather on mobile